Wetterstation Vordersexau
Wetterdaten: Mai 2015
Datum Temp. A. Feuchte A. Luftdruck Regen Wind Richtung Taupunkt Windchill Windben
01.05.2015 10,1 C 82 % 1004,7 hPa 19,1 l/m 6,2 km/h W 7,1 C 8,6 C 3,5 km/h
02.05.2015 12,8 C 77 % 1008,6 hPa 3,3 l/m 8,2 km/h W 8,8 C 10,5 C 4,5 km/h
03.05.2015 15,4 C 82 % 1005,4 hPa 9,1 l/m 6,1 km/h S 12,3 C 14,1 C 3,4 km/h
04.05.2015 20,0 C 67 % 1007,0 hPa 0,4 l/m 2,1 km/h SO 13,6 C 19,8 C 1,2 km/h
05.05.2015 17,0 C 75 % 1005,0 hPa 0,4 l/m 7,3 km/h S 12,5 C 15,7 C 4,0 km/h
06.05.2015 15,8 C 66 % 1013,6 hPa 0,0 l/m 7,3 km/h S 8,8 C 14,6 C 4,1 km/h
07.05.2015 14,8 C 61 % 1017,3 hPa 0,0 l/m 0,9 km/h O-SO 6,4 C 14,8 C 0,5 km/h
08.05.2015 17,3 C 59 % 1013,2 hPa 0,0 l/m 3,8 km/h W-SW 8,3 C 16,8 C 2,1 km/h
09.05.2015 16,4 C 70 % 1019,0 hPa 0,0 l/m 5,5 km/h S-SW 10,7 C 15,6 C 3,1 km/h
10.05.2015 18,1 C 60 % 1024,1 hPa 0,0 l/m 0,3 km/h N-NO 9,0 C 18,1 C 0,2 km/h
11.05.2015 19,9 C 58 % 1020,6 hPa 0,0 l/m 0,1 km/h O-SO 10,0 C 19,9 C 0,1 km/h
12.05.2015 22,1 C 54 % 1016,8 hPa 0,0 l/m 7,0 km/h W-SW 11,2 C 21,8 C 3,9 km/h
13.05.2015 21,6 C 58 % 1014,6 hPa 3,7 l/m 0,4 km/h N 12,6 C 21,6 C 0,2 km/h
14.05.2015 17,5 C 75 % 1009,3 hPa 10,8 l/m 0,9 km/h S-SO 13,0 C 17,4 C 0,5 km/h
15.05.2015 10,1 C 83 % 1012,3 hPa 19,5 l/m 0,6 km/h S-SO 7,4 C 10,0 C 0,3 km/h
16.05.2015 15,8 C 71 % 1021,0 hPa 0,0 l/m 1,8 km/h W 10,4 C 15,7 C 1,0 km/h
17.05.2015 17,7 C 65 % 1021,8 hPa 0,4 l/m 0,7 km/h NO 10,4 C 17,7 C 0,4 km/h
18.05.2015 17,6 C 60 % 1010,8 hPa 0,0 l/m 6,1 km/h W 8,8 C 17,1 C 3,4 km/h
19.05.2015 13,7 C 70 % 1008,2 hPa 0,0 l/m 3,3 km/h W 8,2 C 13,1 C 1,8 km/h
20.05.2015 10,0 C 79 % 1013,4 hPa 7,0 l/m 1,2 km/h SO 6,3 C 9,8 C 0,6 km/h
21.05.2015 12,6 C 62 % 1021,1 hPa 0,0 l/m 2,5 km/h O-NO 4,8 C 12,1 C 1,4 km/h
22.05.2015 14,6 C 54 % 1021,3 hPa 0,0 l/m 1,0 km/h N 4,0 C 14,6 C 0,6 km/h
23.05.2015 16,0 C 55 % 1016,0 hPa 0,0 l/m 1,5 km/h N-NO 6,0 C 15,9 C 0,8 km/h
24.05.2015 17,3 C 66 % 1014,9 hPa 0,0 l/m 0,0 km/h N 10,5 C 17,3 C 0,0 km/h
25.05.2015 15,9 C 73 % 1012,8 hPa 1,7 l/m 1,2 km/h O-NO 10,8 C 15,8 C 0,7 km/h
26.05.2015 13,9 C 72 % 1015,9 hPa 0,4 l/m 1,9 km/h N 8,6 C 13,5 C 1,1 km/h
27.05.2015 13,3 C 63 % 1020,7 hPa 0,0 l/m 0,7 km/h N-NO 5,6 C 13,3 C 0,4 km/h
28.05.2015 16,2 C 60 % 1015,5 hPa 0,0 l/m 4,1 km/h O-SO 7,6 C 15,8 C 2,3 km/h
29.05.2015 16,4 C 67 % 1010,5 hPa 0,0 l/m 4,4 km/h NO 9,8 C 15,9 C 2,5 km/h
30.05.2015 15,0 C 72 % 1013,7 hPa 0,4 l/m 2,3 km/h W 9,7 C 14,8 C 1,3 km/h
31.05.2015 17,3 C 63 % 1014,1 hPa 0,0 l/m 5,2 km/h SO 9,6 C 16,7 C 2,9 km/h
Min-Datum 22.05.15 22.05.15 05.05.15 13 Tage 01.05.15 - 22.05.15 02.05.15 01.05.15
Min-Zeit 05:51 17:51 06:51 - 00:51 - 05:51 07:51 00:51
Minimum 2,2 C 24 % 999,5 hPa - 0,0 km/h - -0,2 C -4,1 C 0,0 km/h
Max-Datum 11.05.15 03.05.15 10.05.15 15.05.15 02.05.15 - 04.05.15 11.05.15 02.05.15
Max-Zeit 17:51 07:51 10:51 00:51 07:51 - 16:51 17:51 07:51
Maximum 36,4 C 85 % 1025,7 hPa 19,5 l/m 54,4 km/h
W
- 18,1 C 36,4 C 30,2 km/h
W
Durchschnitt 15,9 C 67 % 1014,3 hPa #76,2 l/m 3,1 km/h W 9,1 C 15,4 C 1,7 km/h

Durchschnitt Minimum Temp.8,6 C
Durchschnitt Maximum Temp.24,3 C
www.sexauwetter.de